TimeEDT,TemperatureF,Dew PointF,Humidity,Sea Level PressureIn,VisibilityMPH,Wind Direction,Wind SpeedMPH,Gust SpeedMPH,PrecipitationIn,Events,Conditions,WindDirDegrees,DateUTC
12:53 AM,71.1,68.0,90,29.98,10.0,South,5.8,-,N/A,,Scattered Clouds,180,2013-11-01 04:53:00
1:53 AM,72.0,68.0,87,29.96,10.0,SSW,8.1,-,N/A,,Clear,200,2013-11-01 05:53:00
2:53 AM,72.0,66.9,84,29.95,10.0,SSW,8.1,-,N/A,,Clear,200,2013-11-01 06:53:00
3:53 AM,70.0,66.0,87,29.93,10.0,South,5.8,-,N/A,,Clear,180,2013-11-01 07:53:00
4:53 AM,70.0,66.0,87,29.92,10.0,SSW,5.8,-,N/A,,Clear,200,2013-11-01 08:53:00
5:53 AM,69.1,64.9,87,29.89,10.0,South,9.2,-,N/A,,Mostly Cloudy,190,2013-11-01 09:53:00
6:53 AM,69.1,64.0,84,29.88,10.0,South,8.1,-,N/A,,Scattered Clouds,190,2013-11-01 10:53:00
7:53 AM,69.1,64.0,84,29.91,10.0,SSW,6.9,-,N/A,,Mostly Cloudy,200,2013-11-01 11:53:00
8:53 AM,71.1,64.9,81,29.92,10.0,South,6.9,-,N/A,,Overcast,190,2013-11-01 12:53:00
9:53 AM,73.0,64.9,76,29.92,10.0,South,9.2,-,N/A,,Overcast,190,2013-11-01 13:53:00
10:53 AM,73.9,64.0,71,29.93,10.0,SW,9.2,-,N/A,,Overcast,220,2013-11-01 14:53:00
11:53 AM,79.0,64.9,62,29.89,10.0,SW,15.0,20.7,N/A,,Mostly Cloudy,230,2013-11-01 15:53:00
12:53 PM,81.0,66.0,60,29.86,10.0,SW,13.8,25.3,N/A,,Scattered Clouds,220,2013-11-01 16:53:00
1:53 PM,82.0,66.0,58,29.83,10.0,SSW,13.8,23.0,N/A,,Mostly Cloudy,200,2013-11-01 17:53:00
2:53 PM,81.0,66.0,60,29.81,10.0,SW,15.0,19.6,N/A,,Mostly Cloudy,220,2013-11-01 18:53:00
3:53 PM,79.0,66.9,66,29.80,10.0,SSW,12.7,-,N/A,,Overcast,210,2013-11-01 19:53:00
4:53 PM,78.1,66.9,68,29.79,10.0,SW,9.2,-,N/A,,Overcast,220,2013-11-01 20:53:00
5:53 PM,77.0,68.0,74,29.78,10.0,SSW,9.2,17.3,0.00,Rain,Light Rain,200,2013-11-01 21:53:00
6:53 PM,75.9,68.0,76,29.77,10.0,South,9.2,-,0.00,,Overcast,190,2013-11-01 22:53:00
7:53 PM,73.9,69.1,85,29.80,10.0,SSW,3.5,-,0.01,,Overcast,210,2013-11-01 23:53:00
8:53 PM,73.0,69.1,87,29.79,6.0,SSE,4.6,-,0.03,Rain,Rain,160,2013-11-02 00:53:00
9:53 PM,73.9,69.1,85,29.78,10.0,SSW,16.1,-,0.03,,Overcast,200,2013-11-02 01:53:00
10:12 PM,73.4,69.8,88,29.80,5.0,West,12.7,-,0.02,Rain,Rain,280,2013-11-02 02:12:00
10:16 PM,73.4,69.8,88,29.79,5.0,West,9.2,-,0.04,Rain,Rain,280,2013-11-02 02:16:00
10:36 PM,73.4,69.8,88,29.80,5.0,West,5.8,-,0.09,Rain,Light Rain,270,2013-11-02 02:36:00
10:53 PM,72.0,69.1,91,29.80,9.0,NNW,4.6,-,0.12,Rain,Light Rain,330,2013-11-02 02:53:00
11:13 PM,71.6,69.8,94,29.80,1.8,NW,8.1,-,0.09,Rain,Heavy Rain,320,2013-11-02 03:13:00
11:20 PM,71.6,68.0,88,29.80,3.0,NW,8.1,-,0.14,Rain,Rain,310,2013-11-02 03:20:00
11:41 PM,71.6,68.0,88,29.80,5.0,NW,8.1,-,0.19,Rain,Rain,320,2013-11-02 03:41:00
11:47 PM,69.8,66.2,88,29.81,1.8,WNW,6.9,-,0.24,Rain,Heavy Rain,300,2013-11-02 03:47:00
11:53 PM,70.0,66.9,90,29.80,1.2,NW,8.1,-,0.38,Rain,Heavy Rain,310,2013-11-02 03:53:00
11:56 PM,69.8,66.2,88,29.80,1.5,WNW,8.1,-,0.04,Rain,Heavy Rain,300,2013-11-02 03:56:00